createdAt,value
2018-07-13T00:02:21.701Z,7.43
2018-07-13T00:04:49.898Z,7.53
2018-07-13T00:07:18.064Z,7.40
2018-07-13T00:09:46.235Z,7.97
2018-07-13T00:12:14.435Z,7.70
2018-07-13T00:14:56.542Z,8.70
2018-07-13T00:17:24.803Z,7.07
2018-07-13T00:19:53.107Z,6.97
2018-07-13T00:22:21.278Z,6.50
2018-07-13T00:24:49.531Z,6.93
2018-07-13T00:27:17.797Z,7.63
2018-07-13T00:29:46.037Z,7.20
2018-07-13T00:32:14.237Z,6.97
2018-07-13T00:34:42.411Z,7.20
2018-07-13T00:37:10.572Z,6.87
2018-07-13T00:39:38.695Z,7.00
2018-07-13T00:42:07.235Z,7.47
2018-07-13T00:44:35.406Z,7.70
2018-07-13T00:47:03.549Z,7.67
2018-07-13T00:49:31.727Z,8.47
2018-07-13T00:51:59.889Z,8.27
2018-07-13T00:54:28.064Z,7.33
2018-07-13T00:56:56.363Z,8.33
2018-07-13T00:59:24.782Z,7.70
2018-07-13T01:01:52.951Z,8.43
2018-07-13T01:04:21.165Z,8.20
2018-07-13T01:06:49.357Z,8.73
2018-07-13T01:09:17.563Z,8.20
2018-07-13T01:11:45.958Z,7.80
2018-07-13T01:14:14.119Z,8.23
2018-07-13T01:16:42.376Z,7.97
2018-07-13T01:19:10.574Z,9.13
2018-07-13T01:21:38.792Z,8.73
2018-07-13T01:24:07.082Z,9.47
2018-07-13T01:26:35.359Z,9.47
2018-07-13T01:29:03.609Z,10.63
2018-07-13T01:31:31.786Z,8.53
2018-07-13T01:34:00.028Z,8.83
2018-07-13T01:36:28.241Z,9.10
2018-07-13T01:38:56.530Z,8.03
2018-07-13T01:41:25.403Z,8.20
2018-07-13T01:43:53.577Z,8.80
2018-07-13T01:46:21.779Z,8.53
2018-07-13T01:48:50.048Z,8.20
2018-07-13T01:51:18.199Z,8.77
2018-07-13T01:53:46.391Z,8.63
2018-07-13T01:56:14.588Z,8.20
2018-07-13T01:58:42.849Z,8.47
2018-07-13T02:01:11.131Z,9.53
2018-07-13T02:03:39.383Z,8.80
2018-07-13T02:06:07.796Z,7.97
2018-07-13T02:08:35.983Z,8.57
2018-07-13T02:13:38.801Z,8.27
2018-07-13T02:16:07.083Z,10.30
2018-07-13T02:18:35.317Z,8.90
2018-07-13T02:21:03.693Z,8.60
2018-07-13T02:23:32.168Z,9.47
2018-07-13T02:26:00.364Z,9.77
2018-07-13T02:28:28.521Z,8.90
2018-07-13T02:30:56.692Z,9.47
2018-07-13T02:33:24.880Z,9.07
2018-07-13T02:35:53.062Z,9.00
2018-07-13T02:38:21.328Z,8.80
2018-07-13T02:40:49.508Z,9.37
2018-07-13T02:43:18.232Z,10.10
2018-07-13T02:45:46.414Z,11.30
2018-07-13T02:48:14.707Z,10.07
2018-07-13T02:50:42.898Z,10.40
2018-07-13T02:53:11.096Z,9.87
2018-07-13T02:55:39.306Z,10.00
2018-07-13T02:58:07.619Z,10.37
2018-07-13T03:00:35.905Z,11.00
2018-07-13T03:03:04.154Z,9.50
2018-07-13T03:05:32.415Z,9.53
2018-07-13T03:08:00.758Z,9.50
2018-07-13T03:10:28.981Z,8.90
2018-07-13T03:12:57.201Z,9.10
2018-07-13T03:15:25.381Z,8.50
2018-07-13T03:17:53.553Z,8.57
2018-07-13T03:20:21.705Z,8.83
2018-07-13T03:22:50.037Z,8.77
2018-07-13T03:25:18.277Z,8.07
2018-07-13T03:27:46.413Z,8.03
2018-07-13T03:30:14.629Z,11.83
2018-07-13T03:32:42.807Z,11.23
2018-07-13T03:35:11.045Z,11.67
2018-07-13T03:37:39.505Z,12.37
2018-07-13T03:40:07.679Z,12.87
2018-07-13T03:42:35.840Z,18.43
2018-07-13T03:45:04.050Z,11.87
2018-07-13T03:47:32.231Z,10.17
2018-07-13T03:50:00.468Z,8.80
2018-07-13T03:52:28.705Z,8.37
2018-07-13T03:54:56.948Z,12.33
2018-07-13T03:57:25.151Z,13.27
2018-07-13T03:59:53.455Z,7.90
2018-07-13T04:02:21.913Z,9.03
2018-07-13T04:04:50.094Z,7.30
2018-07-13T04:07:18.714Z,12.27
2018-07-13T04:09:47.052Z,9.87
2018-07-13T04:12:15.286Z,7.30
2018-07-13T04:14:44.107Z,7.90
2018-07-13T04:17:12.267Z,7.07
2018-07-13T04:19:40.475Z,12.97
2018-07-13T04:22:08.665Z,8.27
2018-07-13T04:24:37.151Z,5.93
2018-07-13T04:27:05.357Z,8.77
2018-07-13T04:29:33.755Z,6.85
2018-07-13T04:32:01.902Z,6.28
2018-07-13T04:34:30.177Z,6.35
2018-07-13T04:36:58.369Z,5.87
2018-07-13T04:39:26.573Z,5.97
2018-07-13T04:41:54.847Z,21.40
2018-07-13T04:44:23.089Z,11.05
2018-07-13T04:46:51.295Z,5.62
2018-07-13T04:49:19.688Z,5.80
2018-07-13T04:51:48.031Z,5.53
2018-07-13T04:54:16.355Z,5.70
2018-07-13T04:56:44.639Z,7.45
2018-07-13T04:59:13.529Z,6.60
2018-07-13T05:01:41.717Z,6.42
2018-07-13T05:04:09.915Z,5.65
2018-07-13T05:06:38.143Z,6.35
2018-07-13T05:09:07.107Z,6.50
2018-07-13T05:11:35.487Z,6.47
2018-07-13T05:14:03.883Z,6.53
2018-07-13T05:16:32.074Z,6.92
2018-07-13T05:19:00.485Z,6.87
2018-07-13T05:21:28.893Z,7.93
2018-07-13T05:23:57.088Z,7.80
2018-07-13T05:26:25.417Z,7.90
2018-07-13T05:28:53.698Z,6.80
2018-07-13T05:31:21.876Z,6.97
2018-07-13T05:33:50.112Z,7.00
2018-07-13T05:36:18.372Z,8.00
2018-07-13T05:38:46.628Z,7.43
2018-07-13T05:41:15.129Z,7.00
2018-07-13T05:43:43.377Z,15.40
2018-07-13T05:46:11.784Z,7.33
2018-07-13T05:48:40.638Z,7.00
2018-07-13T05:51:08.884Z,7.53
2018-07-13T05:53:37.212Z,6.30
2018-07-13T05:56:05.406Z,6.67
2018-07-13T05:58:33.844Z,18.60
2018-07-13T06:01:02.073Z,9.90
2018-07-13T06:03:30.268Z,7.60
2018-07-13T06:05:58.600Z,7.40
2018-07-13T06:08:27.348Z,7.42
2018-07-13T06:10:55.569Z,7.80
2018-07-13T06:13:23.786Z,7.67
2018-07-13T06:15:51.928Z,6.70
2018-07-13T06:18:20.288Z,8.15
2018-07-13T06:20:48.561Z,7.97
2018-07-13T06:23:16.727Z,16.95
2018-07-13T06:25:45.038Z,23.00
2018-07-13T06:28:13.244Z,8.15
2018-07-13T06:30:41.421Z,7.80
2018-07-13T06:33:09.621Z,8.35
2018-07-13T06:35:37.935Z,7.10
2018-07-13T06:38:06.247Z,10.38
2018-07-13T06:40:34.544Z,7.80
2018-07-13T06:43:02.835Z,10.25
2018-07-13T06:45:36.034Z,8.73
2018-07-13T06:48:04.687Z,9.93
2018-07-13T06:50:33.101Z,10.28
2018-07-13T06:53:01.363Z,9.53
2018-07-13T06:55:29.516Z,8.38
2018-07-13T06:58:09.074Z,9.23
2018-07-13T07:00:58.965Z,9.45
2018-07-13T07:03:28.188Z,8.85
2018-07-13T07:06:00.370Z,8.40
2018-07-13T07:08:28.911Z,9.15
2018-07-13T07:10:57.641Z,10.55
2018-07-13T07:13:32.239Z,11.08
2018-07-13T07:16:00.777Z,14.95
2018-07-13T07:18:29.057Z,15.50
2018-07-13T07:20:58.095Z,13.85
2018-07-13T07:23:26.960Z,15.63
2018-07-13T07:25:56.091Z,11.40
2018-07-13T07:28:24.280Z,11.08
2018-07-13T07:30:52.906Z,11.25
2018-07-13T07:33:21.200Z,13.68
2018-07-13T07:35:49.468Z,14.05
2018-07-13T07:38:17.722Z,14.25
2018-07-13T07:40:46.439Z,15.38
2018-07-13T07:43:14.907Z,15.27
2018-07-13T07:45:43.080Z,16.03
2018-07-13T07:48:11.346Z,17.10
2018-07-13T07:50:39.533Z,17.03
2018-07-13T07:53:08.339Z,18.17
2018-07-13T07:55:36.525Z,17.40
2018-07-13T07:58:04.891Z,17.73
2018-07-13T08:00:33.052Z,18.17
2018-07-13T08:03:01.261Z,18.27
2018-07-13T08:05:29.565Z,24.37
2018-07-13T08:07:57.916Z,27.97
2018-07-13T08:10:26.093Z,20.73
2018-07-13T08:12:54.376Z,20.30
2018-07-13T08:15:22.712Z,19.13
2018-07-13T08:17:50.962Z,18.57
2018-07-13T08:20:27.081Z,24.53
2018-07-13T08:22:56.758Z,19.73
2018-07-13T08:25:26.384Z,19.33
2018-07-13T08:27:57.202Z,19.47
2018-07-13T08:30:27.939Z,20.27
2018-07-13T08:32:57.651Z,19.30
2018-07-13T08:35:25.927Z,19.13
2018-07-13T08:37:54.210Z,24.00
2018-07-13T08:40:22.505Z,22.87
2018-07-13T08:42:50.699Z,23.63
2018-07-13T08:45:18.960Z,19.10
2018-07-13T08:47:47.329Z,22.00
2018-07-13T08:50:15.524Z,19.37
2018-07-13T08:52:43.820Z,20.50
2018-07-13T08:55:14.967Z,19.60
2018-07-13T08:57:44.241Z,19.30
2018-07-13T09:00:12.407Z,19.87
2018-07-13T09:02:40.845Z,21.95
2018-07-13T09:05:09.705Z,20.17
2018-07-13T09:07:38.537Z,28.15
2018-07-13T09:10:08.915Z,21.55
2018-07-13T09:12:37.184Z,18.55
2018-07-13T09:15:05.440Z,22.70
2018-07-13T09:17:33.638Z,20.15
2018-07-13T09:20:02.481Z,19.05
2018-07-13T09:22:30.662Z,16.45
2018-07-13T09:24:58.833Z,16.95
2018-07-13T09:27:27.088Z,16.48
2018-07-13T09:29:55.309Z,16.50
2018-07-13T09:32:23.559Z,17.32
2018-07-13T09:34:51.763Z,16.90
2018-07-13T09:37:20.226Z,19.50
2018-07-13T09:39:48.546Z,18.57
2018-07-13T09:42:16.841Z,30.10
2018-07-13T09:44:45.144Z,17.23
2018-07-13T09:47:13.440Z,16.52
2018-07-13T09:49:41.616Z,18.90
2018-07-13T09:52:09.838Z,16.65
2018-07-13T09:54:38.191Z,19.15
2018-07-13T09:57:06.416Z,15.43
2018-07-13T09:59:34.660Z,15.18
2018-07-13T10:02:02.848Z,16.87
2018-07-13T10:04:31.070Z,14.25
2018-07-13T10:06:59.256Z,18.23
2018-07-13T10:09:27.561Z,16.15
2018-07-13T10:11:55.776Z,14.68
2018-07-13T10:14:24.032Z,14.10
2018-07-13T10:16:52.269Z,14.50
2018-07-13T10:19:21.020Z,15.43
2018-07-13T10:21:49.682Z,14.53
2018-07-13T10:24:19.217Z,13.62
2018-07-13T10:26:47.630Z,11.70
2018-07-13T10:29:19.068Z,12.68
2018-07-13T10:31:48.060Z,13.58
2018-07-13T10:34:17.220Z,13.00
2018-07-13T10:36:48.944Z,13.22
2018-07-13T10:39:17.206Z,17.07
2018-07-13T10:41:45.600Z,14.35
2018-07-13T10:44:14.315Z,12.60
2018-07-13T10:46:42.496Z,12.18
2018-07-13T10:49:10.807Z,11.78
2018-07-13T10:51:39.068Z,13.25
2018-07-13T10:54:07.299Z,12.70
2018-07-13T10:56:35.476Z,11.97
2018-07-13T10:59:03.714Z,15.88
2018-07-13T11:01:31.961Z,11.90
2018-07-13T11:04:00.141Z,17.17
2018-07-13T11:06:28.359Z,10.98
2018-07-13T11:08:56.544Z,13.13
2018-07-13T11:11:24.784Z,18.27
2018-07-13T11:13:53.130Z,13.38
2018-07-13T11:16:21.291Z,14.13
2018-07-13T11:18:49.584Z,12.15
2018-07-13T11:21:17.785Z,20.88
2018-07-13T11:23:46.018Z,15.48
2018-07-13T11:26:14.340Z,14.58
2018-07-13T11:28:42.483Z,11.10
2018-07-13T11:31:10.687Z,12.80
2018-07-13T11:33:38.977Z,9.70
2018-07-13T11:36:07.362Z,10.05
2018-07-13T11:38:35.658Z,9.28
2018-07-13T11:41:03.901Z,10.72
2018-07-13T11:43:32.242Z,9.28
2018-07-13T11:46:00.496Z,8.15
2018-07-13T11:48:28.668Z,7.75
2018-07-13T11:50:56.930Z,9.43
2018-07-13T11:53:25.130Z,15.93
2018-07-13T11:55:54.110Z,8.60
2018-07-13T11:58:22.431Z,7.70
2018-07-13T12:00:54.356Z,7.72
2018-07-13T12:03:22.570Z,7.33
2018-07-13T12:05:50.793Z,7.92
2018-07-13T12:08:18.972Z,7.50
2018-07-13T12:10:47.146Z,8.48
2018-07-13T12:13:15.344Z,7.37
2018-07-13T12:15:43.531Z,6.83
2018-07-13T12:18:11.742Z,6.42
2018-07-13T12:20:40.078Z,6.50
2018-07-13T12:23:08.275Z,7.40
2018-07-13T12:25:36.398Z,6.83
2018-07-13T12:28:04.766Z,9.43
2018-07-13T12:30:33.000Z,8.95
2018-07-13T12:33:01.236Z,6.67
2018-07-13T12:35:29.426Z,7.77
2018-07-13T12:37:57.599Z,7.90
2018-07-13T12:40:25.763Z,7.10
2018-07-13T12:42:54.013Z,7.27
2018-07-13T12:45:22.413Z,6.27
2018-07-13T12:47:50.728Z,6.87
2018-07-13T12:50:20.326Z,7.77
2018-07-13T12:52:48.587Z,7.50
2018-07-13T12:55:16.965Z,6.97
2018-07-13T12:57:45.276Z,6.73
2018-07-13T13:00:13.586Z,6.13
2018-07-13T13:02:41.798Z,5.67
2018-07-13T13:05:10.116Z,5.60
2018-07-13T13:07:38.294Z,5.83
2018-07-13T13:10:06.620Z,6.10
2018-07-13T13:12:34.818Z,6.07
2018-07-13T13:15:03.015Z,6.10
2018-07-13T13:17:31.251Z,6.50
2018-07-13T13:19:59.434Z,5.73
2018-07-13T13:22:27.858Z,6.33
2018-07-13T13:24:56.180Z,5.23
2018-07-13T13:27:24.474Z,5.67
2018-07-13T13:29:52.757Z,6.47
2018-07-13T13:32:21.036Z,6.70
2018-07-13T13:34:50.572Z,6.80
2018-07-13T13:37:19.006Z,5.90
2018-07-13T13:39:47.574Z,6.37
2018-07-13T13:42:15.899Z,6.67
2018-07-13T13:44:44.458Z,6.30
2018-07-13T13:47:12.612Z,6.43
2018-07-13T13:49:41.018Z,6.30
2018-07-13T13:52:09.202Z,6.50
2018-07-13T13:54:37.480Z,5.57
2018-07-13T13:57:05.902Z,8.90
2018-07-13T13:59:34.052Z,6.43
2018-07-13T14:02:02.309Z,6.10
2018-07-13T14:04:30.473Z,6.00
2018-07-13T14:06:58.846Z,7.00
2018-07-13T14:09:27.036Z,7.20
2018-07-13T14:11:55.352Z,6.20
2018-07-13T14:14:23.731Z,6.90
2018-07-13T14:16:52.036Z,5.73
2018-07-13T14:19:20.564Z,6.40
2018-07-13T14:21:50.066Z,6.23
2018-07-13T14:24:18.346Z,5.50
2018-07-13T14:26:46.630Z,5.43
2018-07-13T14:29:16.342Z,5.20
2018-07-13T14:31:44.516Z,5.77
2018-07-13T14:34:12.754Z,5.77
2018-07-13T14:36:42.141Z,6.60
2018-07-13T14:39:11.161Z,5.43
2018-07-13T14:41:39.735Z,7.60
2018-07-13T14:44:09.131Z,5.83
2018-07-13T14:46:38.235Z,5.60
2018-07-13T14:49:06.537Z,5.40
2018-07-13T14:51:36.703Z,5.70
2018-07-13T14:54:05.797Z,5.40
2018-07-13T14:56:35.295Z,6.13
2018-07-13T14:59:03.789Z,5.20
2018-07-13T15:01:32.040Z,5.37
2018-07-13T15:04:00.506Z,4.90
2018-07-13T15:06:28.989Z,5.43
2018-07-13T15:08:57.182Z,5.20
2018-07-13T15:11:25.408Z,5.30
2018-07-13T15:13:54.297Z,5.10
2018-07-13T15:16:23.140Z,5.00
2018-07-13T15:18:51.381Z,5.77
2018-07-13T15:21:19.520Z,5.80
2018-07-13T15:23:47.745Z,5.33
2018-07-13T15:26:16.741Z,5.03
2018-07-13T15:28:44.967Z,4.97
2018-07-13T15:31:13.247Z,5.27
2018-07-13T15:33:42.702Z,5.73
2018-07-13T15:36:11.044Z,5.33
2018-07-13T15:38:39.448Z,5.43
2018-07-13T15:41:07.716Z,5.60
2018-07-13T15:43:36.719Z,6.27
2018-07-13T15:46:04.905Z,5.57
2018-07-13T15:48:33.129Z,5.70
2018-07-13T15:51:01.425Z,5.10
2018-07-13T15:53:29.609Z,4.97
2018-07-13T15:55:58.682Z,5.35
2018-07-13T15:58:28.254Z,5.40
2018-07-13T16:00:56.557Z,6.20
2018-07-13T16:03:25.212Z,5.92
2018-07-13T16:05:53.727Z,6.53
2018-07-13T16:08:21.992Z,5.33
2018-07-13T16:10:50.438Z,4.23
2018-07-13T16:13:18.600Z,3.60
2018-07-13T16:15:47.075Z,5.47
2018-07-13T16:18:15.355Z,5.03
2018-07-13T16:20:44.727Z,6.77
2018-07-13T16:23:12.985Z,6.10
2018-07-13T16:25:41.257Z,7.87
2018-07-13T16:28:09.475Z,6.80
2018-07-13T16:30:37.746Z,7.13
2018-07-13T16:33:06.610Z,10.07
2018-07-13T16:35:35.037Z,9.47
2018-07-13T16:38:03.359Z,8.80
2018-07-13T16:40:31.685Z,8.77
2018-07-13T16:43:00.306Z,6.73
2018-07-13T16:45:28.559Z,6.00
2018-07-13T16:47:56.929Z,5.70
2018-07-13T16:50:25.243Z,6.60
2018-07-13T16:52:53.529Z,6.90
2018-07-13T16:55:21.768Z,7.53
2018-07-13T16:57:49.956Z,8.37
2018-07-13T17:00:18.195Z,12.53
2018-07-13T17:02:46.362Z,23.13
2018-07-13T17:05:14.877Z,12.67
2018-07-13T17:07:43.108Z,10.27
2018-07-13T17:10:11.270Z,7.80
2018-07-13T17:12:39.488Z,10.60
2018-07-13T17:15:07.720Z,8.83
2018-07-13T17:17:36.662Z,7.27
2018-07-13T17:20:05.074Z,8.97
2018-07-13T17:22:34.353Z,7.27
2018-07-13T17:25:02.582Z,8.37
2018-07-13T17:27:30.836Z,13.07
2018-07-13T17:29:59.064Z,9.60
2018-07-13T17:32:27.285Z,7.53
2018-07-13T17:34:55.530Z,7.33
2018-07-13T17:37:23.775Z,8.77
2018-07-13T17:39:51.960Z,6.90
2018-07-13T17:42:20.200Z,13.60
2018-07-13T17:44:48.438Z,15.00
2018-07-13T17:47:16.663Z,10.07
2018-07-13T17:49:44.848Z,7.17
2018-07-13T17:52:13.117Z,9.30
2018-07-13T17:54:41.454Z,9.87
2018-07-13T17:57:09.659Z,14.60
2018-07-13T17:59:37.892Z,11.93
2018-07-13T18:02:06.698Z,9.00
2018-07-13T18:04:36.239Z,7.70
2018-07-13T18:07:04.542Z,15.00
2018-07-13T18:09:32.750Z,6.47
2018-07-13T18:12:00.954Z,14.00
2018-07-13T18:14:29.212Z,15.43
2018-07-13T18:16:57.420Z,8.50
2018-07-13T18:19:25.619Z,7.83
2018-07-13T18:21:54.025Z,8.43
2018-07-13T18:24:22.225Z,7.63
2018-07-13T18:26:50.508Z,6.93
2018-07-13T18:29:18.660Z,7.60
2018-07-13T18:31:47.014Z,7.23
2018-07-13T18:34:15.347Z,14.93
2018-07-13T18:36:43.612Z,10.77
2018-07-13T18:39:12.187Z,11.47
2018-07-13T18:41:40.408Z,14.70
2018-07-13T18:44:08.601Z,12.50
2018-07-13T18:46:36.785Z,9.27
2018-07-13T18:49:05.130Z,8.57
2018-07-13T18:51:33.422Z,6.00
2018-07-13T18:54:01.673Z,10.80
2018-07-13T18:56:29.893Z,11.73
2018-07-13T18:58:58.078Z,6.40
2018-07-13T19:01:26.344Z,9.30
2018-07-13T19:03:55.607Z,7.63
2018-07-13T19:06:23.947Z,5.73
2018-07-13T19:08:52.147Z,10.93
2018-07-13T19:11:20.562Z,11.47
2018-07-13T19:13:49.849Z,12.33
2018-07-13T19:16:18.106Z,7.93
2018-07-13T19:18:46.748Z,5.80
2018-07-13T19:21:15.880Z,6.80
2018-07-13T19:23:44.209Z,6.93
2018-07-13T19:26:12.513Z,7.10
2018-07-13T19:28:40.761Z,8.27
2018-07-13T19:31:09.107Z,5.37
2018-07-13T19:33:37.329Z,6.30
2018-07-13T19:36:06.141Z,7.37
2018-07-13T19:38:34.240Z,15.17
2018-07-13T19:41:03.029Z,11.17
2018-07-13T19:43:31.522Z,10.07
2018-07-13T19:45:59.779Z,9.80
2018-07-13T19:48:28.018Z,8.20
2018-07-13T19:50:56.228Z,27.30
2018-07-13T19:53:25.162Z,12.70
2018-07-13T19:55:53.710Z,40.47
2018-07-13T19:58:21.986Z,8.77
2018-07-13T20:00:50.218Z,9.33
2018-07-13T20:03:18.446Z,7.23
2018-07-13T20:05:46.773Z,7.37
2018-07-13T20:08:15.639Z,5.80
2018-07-13T20:10:44.019Z,7.23
2018-07-13T20:13:12.467Z,6.73
2018-07-13T20:15:40.670Z,10.13
2018-07-13T20:18:08.929Z,43.43
2018-07-13T20:20:37.172Z,21.33
2018-07-13T20:23:05.425Z,10.67
2018-07-13T20:25:33.824Z,15.63
2018-07-13T20:28:02.638Z,11.10
2018-07-13T20:30:30.881Z,19.70
2018-07-13T20:32:59.237Z,14.87
2018-07-13T20:35:28.041Z,32.87
2018-07-13T20:37:57.045Z,43.43
2018-07-13T20:40:25.251Z,10.43
2018-07-13T20:42:55.164Z,8.43
2018-07-13T20:45:23.619Z,8.43
2018-07-13T20:47:52.536Z,9.00
2018-07-13T20:50:21.785Z,9.67
2018-07-13T20:52:51.132Z,15.07
2018-07-13T20:55:19.654Z,11.70
2018-07-13T20:57:49.133Z,11.70
2018-07-13T21:00:17.671Z,11.73
2018-07-13T21:02:45.930Z,10.97
2018-07-13T21:05:14.874Z,14.20
2018-07-13T21:07:43.438Z,9.03
2018-07-13T21:10:12.353Z,10.47
2018-07-13T21:12:40.561Z,23.07
2018-07-13T21:15:09.195Z,15.23
2018-07-13T21:17:38.042Z,15.27
2018-07-13T21:20:06.549Z,13.07
2018-07-13T21:22:34.818Z,11.27
2018-07-13T21:25:03.113Z,10.37
2018-07-13T21:27:31.429Z,11.53
2018-07-13T21:29:59.749Z,10.80
2018-07-13T21:32:27.973Z,10.50
2018-07-13T21:34:56.280Z,16.17
2018-07-13T21:37:24.571Z,9.93
2018-07-13T21:39:52.817Z,14.33
2018-07-13T21:42:21.036Z,8.80
2018-07-13T21:44:49.267Z,18.70
2018-07-13T21:47:17.487Z,11.40
2018-07-13T21:49:45.822Z,9.70
2018-07-13T21:52:14.165Z,6.83
2018-07-13T21:54:42.936Z,8.43
2018-07-13T21:57:11.085Z,34.63
2018-07-13T21:59:39.325Z,18.90
2018-07-13T22:02:07.566Z,28.67
2018-07-13T22:04:35.819Z,11.40
2018-07-13T22:07:04.207Z,8.37
2018-07-13T22:09:32.522Z,13.10
2018-07-13T22:12:00.717Z,11.60
2018-07-13T22:14:28.862Z,10.13
2018-07-13T22:16:57.062Z,24.47
2018-07-13T22:19:25.300Z,17.47
2018-07-13T22:21:53.432Z,11.93
2018-07-13T22:24:22.419Z,9.20
2018-07-13T22:26:50.593Z,16.07
2018-07-13T22:29:18.773Z,7.37
2018-07-13T22:31:47.076Z,12.07
2018-07-13T22:34:15.223Z,14.20
2018-07-13T22:36:43.485Z,34.47
2018-07-13T22:39:11.750Z,49.30
2018-07-13T22:41:40.202Z,9.00
2018-07-13T22:44:08.408Z,10.17
2018-07-13T22:46:36.549Z,11.70
2018-07-13T22:49:04.788Z,10.67
2018-07-13T22:51:32.918Z,9.67
2018-07-13T22:54:01.983Z,15.60
2018-07-13T22:56:30.168Z,9.50
2018-07-13T22:58:58.484Z,10.33
2018-07-13T23:01:26.651Z,8.80
2018-07-13T23:03:54.829Z,13.97
2018-07-13T23:06:23.027Z,22.63
2018-07-13T23:08:51.384Z,8.07
2018-07-13T23:11:19.552Z,7.67
2018-07-13T23:13:47.756Z,14.00
2018-07-13T23:16:15.906Z,8.97
2018-07-13T23:18:44.555Z,10.33
2018-07-13T23:21:12.745Z,14.70
2018-07-13T23:23:41.000Z,16.37
2018-07-13T23:26:09.151Z,8.10
2018-07-13T23:28:37.630Z,6.97
2018-07-13T23:31:05.883Z,11.43
2018-07-13T23:33:34.044Z,7.97
2018-07-13T23:36:02.209Z,8.33
2018-07-13T23:38:30.484Z,9.97
2018-07-13T23:40:58.788Z,7.30
2018-07-13T23:43:26.998Z,7.80
2018-07-13T23:45:55.290Z,8.07
2018-07-13T23:48:23.484Z,8.50
2018-07-13T23:50:52.541Z,8.53
2018-07-13T23:53:20.713Z,8.47
2018-07-13T23:55:48.875Z,8.03
2018-07-13T23:58:17.107Z,8.03
